Latest Weather Observations for Port Pirie Airport AWS

IDS60801

Issued at 10:31 am CST Tuesday 16 August 2022 (issued every 10 minutes, with the page automatically refreshed every 10 minutes)

About weather observations | Map of weather stations | Latest weather observations for SA | Other Formats
Station Details ID: 021139 Name: PORT PIRIE AERODROME AWS Lat: -33.24 Lon: 138.00 Height: 12.0 m
Data from the previous 72 hours. | See also: Recent months for locations in South Australia
Date/Time
CST
Temp
°C
App
Temp
°C
Dew
Point
°C
Rel
Hum
%
Delta-T
°C
Wind Press
QNH
hPa
Press
MSL
hPa
Rain since
9am
mm
Dir  Spd
km/h
Gust
km/h
Spd
kts
Gust
kts
16/10:30am 13.5 13.0 10.9 84 1.4 SE 4 9 2 5 1021.7 1021.7 0.0
16/10:00am 12.2 11.2 10.3 88 1.0 SE 6 11 3 6 1021.8 1021.8 0.0
16/09:30am 12.0 11.0 10.9 93 0.6 SSE 7 11 4 6 1021.8 1021.8 0.0
16/09:00am 11.6 10.2 11.0 96 0.3 SE 9 15 5 8 1021.4 1021.4 3.4
16/08:30am 10.9 10.0 10.6 98 0.2 E 6 9 3 5 1021.1 1021.1 3.4
16/08:00am 10.1 8.4 9.8 98 0.2 NE 9 15 5 8 1020.7 1020.7 3.4
16/07:30am 9.4 8.1 9.1 98 0.1 NNE 6 7 3 4 1020.2 1020.2 3.4
16/07:00am 8.9 7.3 8.6 98 0.1 ENE 7 7 4 4 1019.9 1019.9 3.2
16/06:30am 8.6 6.9 8.3 98 0.1 E 7 7 4 4 1019.3 1019.3 3.2
16/06:00am 8.2 6.6 7.8 97 0.2 NE 6 9 3 5 1019.0 1019.0 3.2
16/05:30am 7.9 6.9 7.5 97 0.2 NW 2 7 1 4 1018.8 1018.8 3.2
16/05:00am 7.3 6.6 6.9 97 0.2 CALM 0 0 0 0 1018.5 1018.5 3.2
16/04:30am 6.6 4.5 6.0 96 0.3 NE 6 7 3 4 1018.3 1018.3 3.2
16/04:00am 6.9 4.7 6.3 96 0.3 ESE 7 7 4 4 1017.8 1017.8 3.2
16/03:30am 7.6 6.9 7.0 96 0.3 CALM 0 0 0 0 1017.5 1017.5 3.2
16/03:00am 8.5 6.9 7.9 96 0.3 S 6 7 3 4 1017.0 1017.0 3.2
16/02:30am 9.4 7.4 8.8 96 0.3 S 9 13 5 7 1017.1 1017.1 3.2
16/02:00am 9.5 7.9 8.9 96 0.3 S 7 15 4 8 1017.5 1017.5 3.2
16/01:30am 9.5 6.7 8.7 95 0.4 WSW 13 15 7 8 1017.4 1017.4 3.2
16/01:00am 9.7 7.8 8.9 95 0.4 SW 9 11 5 6 1017.1 1017.1 3.2
16/12:30am 10.3 7.7 9.5 95 0.4 WSW 13 15 7 8 1017.3 1017.3 3.2
16/12:00am 10.2 6.9 9.4 95 0.4 SW 17 19 9 10 1017.0 1017.0 3.2
 
Date/Time
CST
Temp
°C
App
Temp
°C
Dew
Point
°C
Rel
Hum
%
Delta-T
°C
Wind Press
QNH
hPa
Press
MSL
hPa
Rain since
9am
mm
Dir  Spd
km/h
Gust
km/h
Spd
kts
Gust
kts
15/11:30pm 10.2 6.8 9.3 94 0.4 SW 17 20 9 11 1016.4 1016.5 3.2
15/11:00pm 10.5 6.6 9.6 94 0.5 SW 20 26 11 14 1016.3 1016.4 3.2
15/10:30pm 10.6 6.3 9.5 93 0.5 WSW 22 28 12 15 1016.2 1016.3 3.2
15/10:00pm 10.7 6.4 9.5 92 0.6 WSW 22 28 12 15 1016.3 1016.4 3.2
15/09:30pm 11.1 7.9 10.0 93 0.6 WSW 17 24 9 13 1015.9 1016.0 3.2
15/09:00pm 10.9 7.1 9.7 92 0.6 WSW 20 24 11 13 1015.6 1015.7 3.2
15/08:30pm 10.8 7.1 9.6 92 0.6 WSW 19 26 10 14 1015.2 1015.3 3.2
15/08:00pm 10.6 6.3 9.5 93 0.6 WSW 22 26 12 14 1015.1 1015.2 3.0
15/07:30pm 10.1 7.0 9.0 93 0.5 SSW 15 17 8 9 1014.4 1014.5 3.0
15/07:00pm 10.8 7.5 9.4 91 0.7 SW 17 20 9 11 1013.6 1013.6 3.0
15/06:30pm 10.9 7.0 9.5 91 0.7 WSW 20 28 11 15 1013.7 1013.7 3.0
15/06:00pm 11.0 4.9 9.6 91 0.7 WSW 32 44 17 24 1013.4 1013.4 2.6
15/05:30pm 11.7 4.8 10.3 91 0.7 SW 37 46 20 25 1012.6 1012.6 1.0
15/05:00pm 13.1 6.9 10.1 82 1.5 SW 33 44 18 24 1011.7 1011.7 0.0
15/04:58pm 13.3 7.6 9.9 80 1.7 SW 30 43 16 23 1011.6 1011.6 0.0
15/04:30pm 14.4 11.0 9.0 70 2.7 SSW 17 24 9 13 1010.4 1010.4 0.0
15/04:00pm 13.8 12.5 11.3 85 1.3 NNW 9 13 5 7 1010.1 1010.1 0.0
15/03:30pm 14.3 12.7 11.5 83 1.5 NNW 11 15 6 8 1010.1 1010.1 0.0
15/03:00pm 14.5 13.4 10.7 78 2.0 N 7 11 4 6 1010.0 1010.0 0.0
15/02:30pm 14.2 12.9 11.2 82 1.6 NNW 9 13 5 7 1009.9 1009.9 0.0
15/02:00pm 13.4 10.9 11.1 86 1.2 NNW 15 19 8 10 1010.1 1010.1 0.0
15/01:30pm 15.1 12.9 9.5 69 2.9 SW 11 15 6 8 1010.4 1010.4 0.0
15/01:00pm 15.1 12.7 10.1 72 2.6 W 13 19 7 10 1010.9 1010.9 0.0
15/12:30pm 14.9 12.5 9.9 72 2.6 WNW 13 19 7 10 1011.2 1011.2 0.0
15/12:00pm 13.5 10.6 9.7 78 1.9 WNW 15 20 8 11 1011.6 1011.6 0.0
15/11:30am 13.2 9.8 9.3 77 2.0 WNW 17 20 9 11 1011.7 1011.7 0.0
15/11:00am 13.5 9.9 9.7 78 1.9 NW 19 22 10 12 1011.9 1011.9 0.0
15/10:30am 13.2 10.0 8.5 73 2.3 WNW 15 19 8 10 1012.1 1012.1 0.0
15/10:00am 12.7 8.5 7.4 70 2.6 NW 19 24 10 13 1012.1 1012.1 0.0
15/09:30am 13.0 8.3 6.1 63 3.3 NW 20 26 11 14 1012.0 1012.0 0.0
15/09:00am 13.0 8.1 6.8 66 3.0 NNW 22 28 12 15 1011.8 1011.8 0.0
15/08:30am 12.2 8.9 8.1 76 2.0 NNW 15 17 8 9 1011.6 1011.6 0.0
15/08:00am 11.1 9.5 8.1 82 1.5 S 6 9 3 5 1011.6 1011.6 0.0
15/07:30am 11.1 8.6 8.1 82 1.5 NW 11 15 6 8 1011.5 1011.5 0.0
15/07:00am 10.9 8.4 8.0 82 1.4 NNW 11 13 6 7 1011.3 1011.3 0.0
15/06:30am 11.1 7.8 8.1 82 1.5 NNW 15 17 8 9 1011.3 1011.3 0.0
15/06:00am 10.9 7.5 7.6 80 1.6 NNW 15 17 8 9 1011.2 1011.2 0.0
15/05:30am 11.0 8.0 7.7 80 1.6 NNW 13 17 7 9 1011.2 1011.2 0.0
15/05:00am 11.0 7.3 7.9 81 1.5 N 17 20 9 11 1011.2 1011.2 0.0
15/04:30am 10.7 8.5 7.9 83 1.4 N 9 13 5 7 1011.4 1011.4 0.0
15/04:00am 10.8 7.8 7.9 82 1.4 N 13 15 7 8 1011.4 1011.4 0.0
15/03:30am 10.7 8.2 8.1 84 1.3 N 11 13 6 7 1011.7 1011.7 0.0
15/03:00am 10.1 7.6 8.0 87 1.0 NNW 11 13 6 7 1012.0 1012.0 0.0
15/02:30am 10.4 7.5 8.2 86 1.1 NNW 13 17 7 9 1012.3 1012.3 0.0
15/02:00am 10.2 8.1 8.3 88 0.9 N 9 11 5 6 1012.5 1012.5 0.0
15/01:30am 10.1 7.8 9.0 93 0.5 N 11 13 6 7 1012.6 1012.6 0.0
15/01:00am 10.3 8.4 9.2 93 0.5 N 9 11 5 6 1013.1 1013.1 0.0
15/12:30am 9.9 7.9 8.7 92 0.6 NNE 9 13 5 7 1013.5 1013.5 0.0
15/12:00am 9.9 8.3 8.8 93 0.5 NNW 7 9 4 5 1013.9 1013.9 0.0
 
Date/Time
CST
Temp
°C
App
Temp
°C
Dew
Point
°C
Rel
Hum
%
Delta-T
°C
Wind Press
QNH
hPa
Press
MSL
hPa
Rain since
9am
mm
Dir  Spd
km/h
Gust
km/h
Spd
kts
Gust
kts
14/11:30pm 10.0 7.7 8.9 93 0.5 NNW 11 13 6 7 1013.9 1013.9 0.0
14/11:00pm 9.0 8.4 7.6 91 0.7 CALM 0 9 0 5 1014.2 1014.2 0.0
14/10:30pm 9.5 9.1 8.1 91 0.7 CALM 0 0 0 0 1014.3 1014.3 0.0
14/10:00pm 9.2 7.4 8.0 92 0.6 E 7 9 4 5 1014.4 1014.5 0.0
14/09:30pm 9.5 7.8 8.4 93 0.5 E 7 9 4 5 1014.5 1014.6 0.0
14/09:00pm 9.4 8.2 8.0 91 0.7 ESE 4 7 2 4 1014.6 1014.7 0.0
14/08:30pm 10.2 9.9 8.5 89 0.8 CALM 0 4 0 2 1014.8 1014.9 0.0
14/08:00pm 11.0 9.7 9.3 89 0.8 E 6 7 3 4 1014.6 1014.7 0.0
14/07:30pm 11.0 9.1 8.9 87 1.0 ENE 9 11 5 6 1014.5 1014.6 0.0
14/07:00pm 11.7 10.2 9.1 84 1.3 ENE 7 9 4 5 1014.5 1014.6 0.0
14/06:30pm 12.0 10.1 9.0 82 1.5 SE 9 9 5 5 1014.5 1014.6 0.0
14/06:00pm 12.4 10.0 8.7 78 1.8 SSE 11 11 6 6 1014.5 1014.6 0.0
14/05:30pm 14.1 12.1 8.5 69 2.8 SSW 9 11 5 6 1014.5 1014.6 0.0
14/05:00pm 14.5 11.9 7.8 64 3.3 SSW 11 15 6 8 1014.6 1014.7 0.0
14/04:30pm 14.8 12.6 7.8 63 3.5 S 9 13 5 7 1014.5 1014.6 0.0
14/04:00pm 15.0 12.0 7.5 61 3.7 SW 13 19 7 10 1014.3 1014.3 0.0
14/03:30pm 15.2 12.2 7.5 60 3.8 WSW 13 17 7 9 1014.3 1014.3 0.0
14/03:00pm 15.3 12.6 8.8 65 3.3 SSW 13 20 7 11 1014.4 1014.5 0.0
14/02:30pm 15.7 12.8 8.0 60 3.9 SW 13 19 7 10 1014.9 1015.0 0.0
14/02:00pm 15.8 11.6 7.3 57 4.2 SW 19 26 10 14 1015.3 1015.4 0.0
14/01:30pm 14.8 10.6 7.6 62 3.6 WSW 19 24 10 13 1015.8 1015.9 0.0
14/01:00pm 14.3 10.4 8.5 68 2.9 WSW 19 24 10 13 1016.3 1016.4 0.0
14/12:30pm 14.9 11.3 8.4 65 3.3 W 17 24 9 13 1016.6 1016.7 0.0
14/12:00pm 13.4 9.7 9.3 76 2.1 NW 19 28 10 15 1017.0 1017.0 0.0
14/11:30am 13.3 10.0 9.5 78 1.9 WNW 17 26 9 14 1017.4 1017.4 0.0
14/11:00am 12.9 9.6 9.4 79 1.8 WNW 17 22 9 12 1017.5 1017.5 0.0
14/10:30am 12.9 9.8 9.0 77 2.0 W 15 20 8 11 1017.7 1017.7 0.0
14/10:00am 12.5 8.9 9.7 83 1.4 WNW 19 22 10 12 1017.6 1017.6 0.0
14/09:30am 11.2 7.2 8.9 86 1.1 WNW 20 24 11 13 1017.7 1017.7 0.0
14/09:00am 10.8 6.8 9.1 89 0.8 WNW 20 26 11 14 1017.6 1017.6 0.4
14/08:30am 10.6 6.8 9.2 91 0.7 WNW 19 22 10 12 1017.4 1017.4 0.4
14/08:00am 10.0 7.7 8.9 93 0.5 WNW 11 13 6 7 1017.2 1017.2 0.4
14/07:30am 9.4 6.2 8.3 93 0.5 WNW 15 17 8 9 1016.8 1016.9 0.4
14/07:00am 9.5 7.1 8.6 94 0.4 NW 11 15 6 8 1016.4 1016.5 0.4
14/06:30am 9.0 6.5 8.1 94 0.4 NW 11 11 6 6 1016.3 1016.4 0.4
14/06:00am 9.6 6.4 8.4 92 0.6 WNW 15 20 8 11 1016.0 1016.1 0.4
14/05:30am 9.9 6.8 9.0 94 0.4 WNW 15 17 8 9 1015.9 1016.0 0.4
14/05:00am 9.6 7.2 8.5 93 0.5 W 11 15 6 8 1015.9 1016.0 0.4
14/04:30am 9.8 5.9 8.6 92 0.6 W 19 22 10 12 1015.6 1015.7 0.4
14/04:00am 10.1 6.3 9.2 94 0.4 WNW 19 24 10 13 1015.5 1015.6 0.4
14/03:30am 9.5 6.4 8.7 95 0.4 WNW 15 17 8 9 1015.5 1015.6 0.4
14/03:00am 9.0 6.1 8.2 95 0.4 WNW 13 15 7 8 1015.3 1015.4 0.4
14/02:30am 8.8 5.8 7.9 94 0.4 W 13 15 7 8 1015.6 1015.7 0.4
14/02:00am 8.3 4.9 7.5 95 0.4 WNW 15 17 8 9 1015.9 1016.0 0.4
14/01:30am 8.1 4.9 6.9 92 0.6 W 13 15 7 8 1016.1 1016.2 0.4
14/01:00am 9.2 5.9 8.0 92 0.6 W 15 17 8 9 1016.2 1016.3 0.4
14/12:30am 9.6 6.0 8.4 92 0.6 W 17 17 9 9 1016.4 1016.5 0.4
14/12:00am 9.7 5.7 8.1 90 0.8 W 19 20 10 11 1016.5 1016.6 0.4
 
Date/Time
CST
Temp
°C
App
Temp
°C
Dew
Point
°C
Rel
Hum
%
Delta-T
°C
Wind Press
QNH
hPa
Press
MSL
hPa
Rain since
9am
mm
Dir  Spd
km/h
Gust
km/h
Spd
kts
Gust
kts
13/11:30pm 10.3 6.2 8.6 89 0.8 W 20 26 11 14 1016.5 1016.6 0.4
13/11:00pm 10.2 6.3 8.6 90 0.8 W 19 22 10 12 1016.7 1016.8 0.4
13/10:30pm 10.0 6.0 8.3 89 0.8 W 19 22 10 12 1016.7 1016.8 0.4
13/10:00pm 10.6 5.7 8.4 86 1.1 W 24 30 13 16 1016.8 1016.9 0.4
13/09:30pm 11.1 6.3 8.7 85 1.2 W 24 32 13 17 1016.8 1016.9 0.4
13/09:00pm 11.0 6.6 9.1 88 0.9 W 22 28 12 15 1017.0 1017.0 0.4
13/08:30pm 10.9 5.5 9.5 91 0.7 W 28 37 15 20 1016.8 1016.9 0.4
13/08:00pm 11.4 5.9 9.0 85 1.2 W 28 35 15 19 1016.6 1016.7 0.4
13/07:30pm 11.5 6.1 9.6 88 1.0 WSW 28 35 15 19 1016.5 1016.6 0.4
13/07:00pm 11.6 6.7 9.9 89 0.9 WSW 26 39 14 21 1016.4 1016.5 0.2
13/06:30pm 11.5 6.1 9.6 88 1.0 W 28 35 15 19 1015.9 1016.0 0.0
13/06:00pm 12.7 8.7 9.2 79 1.8 WSW 20 24 11 13 1015.6 1015.7 0.0
13/05:30pm 13.2 8.3 8.5 73 2.3 WSW 24 33 13 18 1015.5 1015.6 0.0
13/05:00pm 13.5 7.9 8.8 73 2.4 WSW 28 41 15 22 1015.5 1015.6 0.0
13/04:30pm 13.5 7.1 9.2 75 2.2 SW 33 43 18 23 1015.3 1015.4 0.0
13/04:00pm 14.5 8.2 8.9 69 2.8 SW 32 43 17 23 1015.2 1015.3 0.0
13/03:30pm 14.5 8.5 8.7 68 2.9 WSW 30 39 16 21 1015.1 1015.2 0.0
13/03:00pm 14.6 8.4 7.9 64 3.3 WSW 30 41 16 22 1015.2 1015.3 0.0
13/02:30pm 15.6 9.0 8.6 63 3.6 WSW 33 43 18 23 1015.1 1015.2 0.0
13/02:00pm 15.6 8.6 8.4 62 3.6 WSW 35 44 19 24 1015.3 1015.4 0.0
13/01:30pm 14.8 7.3 7.8 63 3.5 WSW 37 46 20 25 1015.6 1015.7 0.0
13/01:00pm 14.9 7.5 8.4 65 3.3 WSW 37 48 20 26 1015.9 1016.0 0.0
13/12:30pm 14.4 6.8 7.7 64 3.3 WSW 37 46 20 25 1016.2 1016.3 0.0
13/12:00pm 14.2 6.6 7.7 65 3.2 WSW 37 44 20 24 1016.5 1016.6 0.0
13/11:30am 13.8 5.8 7.6 66 3.0 WSW 39 48 21 26 1016.8 1016.9 0.0
13/11:00am 13.6 6.1 8.0 69 2.8 WSW 37 44 20 24 1017.0 1017.0 0.0

Other formats

Comma delimited format used in spreadsheet applications
http://www.bom.gov.au/fwo/IDS60801/IDS60801.99749.axf

JavaScript Object Notation format (JSON) in row-major order
http://www.bom.gov.au/fwo/IDS60801/IDS60801.99749.json

Data quality

Most of these data are generated automatically and are frequently updated. Quality checks on data are not normally performed. It is possible for incorrect values to appear. Refer to information at About Latest Weather Observations and please check the disclaimer before using these data.